sensor_id;sensor_type;location;lat;lon;timestamp;P1;durP1;ratioP1;P2;durP2;ratioP2
65636;SDS011;52327;42.622;23.316;2023-01-04T00:00:34;1.98;;;1.42;;
65636;SDS011;52327;42.622;23.316;2023-01-04T00:03:00;2.58;;;1.85;;
65636;SDS011;52327;42.622;23.316;2023-01-04T00:05:25;3.58;;;2.28;;
65636;SDS011;52327;42.622;23.316;2023-01-04T00:07:50;2.55;;;1.83;;
65636;SDS011;52327;42.622;23.316;2023-01-04T00:10:16;3.38;;;1.88;;
65636;SDS011;52327;42.622;23.316;2023-01-04T00:12:41;2.83;;;2.25;;
65636;SDS011;52327;42.622;23.316;2023-01-04T00:15:07;3.13;;;2.22;;
65636;SDS011;52327;42.622;23.316;2023-01-04T00:17:33;5.07;;;2.67;;
65636;SDS011;52327;42.622;23.316;2023-01-04T00:19:58;1.83;;;1.60;;
65636;SDS011;52327;42.622;23.316;2023-01-04T00:22:24;4.13;;;2.33;;
65636;SDS011;52327;42.622;23.316;2023-01-04T00:24:49;3.00;;;2.30;;
65636;SDS011;52327;42.622;23.316;2023-01-04T00:27:14;2.67;;;2.05;;
65636;SDS011;52327;42.622;23.316;2023-01-04T00:29:40;3.33;;;2.58;;
65636;SDS011;52327;42.622;23.316;2023-01-04T00:32:05;2.72;;;1.63;;
65636;SDS011;52327;42.622;23.316;2023-01-04T00:34:31;2.83;;;2.25;;
65636;SDS011;52327;42.622;23.316;2023-01-04T00:36:56;1.92;;;1.60;;
65636;SDS011;52327;42.622;23.316;2023-01-04T00:39:21;1.63;;;1.50;;
65636;SDS011;52327;42.622;23.316;2023-01-04T00:41:48;2.35;;;2.08;;
65636;SDS011;52327;42.622;23.316;2023-01-04T00:44:15;5.57;;;2.20;;
65636;SDS011;52327;42.622;23.316;2023-01-04T00:46:41;3.20;;;1.85;;
65636;SDS011;52327;42.622;23.316;2023-01-04T00:49:08;3.03;;;2.40;;
65636;SDS011;52327;42.622;23.316;2023-01-04T00:51:36;5.18;;;2.67;;
65636;SDS011;52327;42.622;23.316;2023-01-04T00:54:03;3.03;;;2.42;;
65636;SDS011;52327;42.622;23.316;2023-01-04T00:56:31;4.55;;;2.72;;
65636;SDS011;52327;42.622;23.316;2023-01-04T00:58:58;4.13;;;2.45;;
65636;SDS011;52327;42.622;23.316;2023-01-04T01:01:25;3.80;;;2.05;;
65636;SDS011;52327;42.622;23.316;2023-01-04T01:03:55;3.40;;;1.95;;
65636;SDS011;52327;42.622;23.316;2023-01-04T01:06:22;3.33;;;2.38;;
65636;SDS011;52327;42.622;23.316;2023-01-04T01:08:49;3.08;;;2.25;;
65636;SDS011;52327;42.622;23.316;2023-01-04T01:11:15;4.65;;;2.97;;
65636;SDS011;52327;42.622;23.316;2023-01-04T01:13:41;6.68;;;4.50;;
65636;SDS011;52327;42.622;23.316;2023-01-04T01:16:08;1.65;;;1.45;;
65636;SDS011;52327;42.622;23.316;2023-01-04T01:18:36;5.05;;;2.05;;
65636;SDS011;52327;42.622;23.316;2023-01-04T01:21:03;3.80;;;3.08;;
65636;SDS011;52327;42.622;23.316;2023-01-04T01:23:30;4.47;;;2.97;;
65636;SDS011;52327;42.622;23.316;2023-01-04T01:25:58;3.22;;;2.55;;
65636;SDS011;52327;42.622;23.316;2023-01-04T01:28:28;3.67;;;2.08;;
65636;SDS011;52327;42.622;23.316;2023-01-04T01:30:54;3.28;;;1.80;;
65636;SDS011;52327;42.622;23.316;2023-01-04T01:33:19;4.85;;;3.03;;
65636;SDS011;52327;42.622;23.316;2023-01-04T01:35:45;3.58;;;2.50;;
65636;SDS011;52327;42.622;23.316;2023-01-04T01:38:10;5.13;;;3.42;;
65636;SDS011;52327;42.622;23.316;2023-01-04T01:40:40;6.18;;;3.20;;
65636;SDS011;52327;42.622;23.316;2023-01-04T01:43:11;4.82;;;2.38;;
65636;SDS011;52327;42.622;23.316;2023-01-04T01:45:43;5.25;;;2.85;;
65636;SDS011;52327;42.622;23.316;2023-01-04T01:48:11;7.63;;;3.92;;
65636;SDS011;52327;42.622;23.316;2023-01-04T01:51:03;5.03;;;2.47;;
65636;SDS011;52327;42.622;23.316;2023-01-04T01:53:29;4.10;;;2.80;;
65636;SDS011;52327;42.622;23.316;2023-01-04T01:55:58;4.53;;;1.98;;
65636;SDS011;52327;42.622;23.316;2023-01-04T01:58:29;2.97;;;2.20;;
65636;SDS011;52327;42.622;23.316;2023-01-04T02:00:58;5.30;;;2.42;;
65636;SDS011;52327;42.622;23.316;2023-01-04T02:03:26;2.75;;;2.13;;
65636;SDS011;52327;42.622;23.316;2023-01-04T02:05:57;3.45;;;2.55;;
65636;SDS011;52327;42.622;23.316;2023-01-04T02:08:25;5.85;;;2.45;;
65636;SDS011;52327;42.622;23.316;2023-01-04T02:10:51;2.97;;;1.90;;
65636;SDS011;52327;42.622;23.316;2023-01-04T02:13:18;3.00;;;1.83;;
65636;SDS011;52327;42.622;23.316;2023-01-04T02:16:04;2.20;;;1.88;;
65636;SDS011;52327;42.622;23.316;2023-01-04T02:18:35;3.25;;;2.40;;
65636;SDS011;52327;42.622;23.316;2023-01-04T02:21:07;4.43;;;2.72;;
65636;SDS011;52327;42.622;23.316;2023-01-04T02:23:48;5.10;;;3.20;;
65636;SDS011;52327;42.622;23.316;2023-01-04T02:32:09;3.53;;;2.63;;
65636;SDS011;52327;42.622;23.316;2023-01-04T02:39:49;4.25;;;2.85;;
65636;SDS011;52327;42.622;23.316;2023-01-04T02:42:18;3.38;;;2.42;;
65636;SDS011;52327;42.622;23.316;2023-01-04T02:45:23;2.78;;;1.65;;
65636;SDS011;52327;42.622;23.316;2023-01-04T02:47:54;5.18;;;3.28;;
65636;SDS011;52327;42.622;23.316;2023-01-04T02:50:55;2.33;;;1.63;;
65636;SDS011;52327;42.622;23.316;2023-01-04T02:53:23;2.72;;;1.75;;
65636;SDS011;52327;42.622;23.316;2023-01-04T03:10:08;2.92;;;1.92;;
65636;SDS011;52327;42.622;23.316;2023-01-04T03:12:44;2.35;;;2.05;;
65636;SDS011;52327;42.622;23.316;2023-01-04T03:15:22;2.97;;;1.95;;
65636;SDS011;52327;42.622;23.316;2023-01-04T03:17:51;2.90;;;2.42;;
65636;SDS011;52327;42.622;23.316;2023-01-04T03:20:22;5.32;;;3.85;;
65636;SDS011;52327;42.622;23.316;2023-01-04T03:22:54;5.68;;;3.83;;
65636;SDS011;52327;42.622;23.316;2023-01-04T03:25:55;3.65;;;2.65;;
65636;SDS011;52327;42.622;23.316;2023-01-04T03:28:43;6.32;;;3.83;;
65636;SDS011;52327;42.622;23.316;2023-01-04T03:34:15;7.35;;;4.28;;
65636;SDS011;52327;42.622;23.316;2023-01-04T03:43:31;5.57;;;3.95;;
65636;SDS011;52327;42.622;23.316;2023-01-04T03:46:16;4.25;;;3.30;;
65636;SDS011;52327;42.622;23.316;2023-01-04T03:49:09;3.55;;;2.65;;
65636;SDS011;52327;42.622;23.316;2023-01-04T03:51:38;6.22;;;3.90;;
65636;SDS011;52327;42.622;23.316;2023-01-04T03:54:08;3.72;;;2.20;;
65636;SDS011;52327;42.622;23.316;2023-01-04T03:56:39;2.60;;;2.22;;
65636;SDS011;52327;42.622;23.316;2023-01-04T03:59:07;4.22;;;3.13;;
65636;SDS011;52327;42.622;23.316;2023-01-04T04:01:34;4.20;;;2.17;;
65636;SDS011;52327;42.622;23.316;2023-01-04T04:04:00;4.55;;;2.88;;
65636;SDS011;52327;42.622;23.316;2023-01-04T04:06:44;5.00;;;3.50;;
65636;SDS011;52327;42.622;23.316;2023-01-04T04:09:29;5.55;;;3.28;;
65636;SDS011;52327;42.622;23.316;2023-01-04T04:11:54;4.97;;;2.78;;
65636;SDS011;52327;42.622;23.316;2023-01-04T04:14:20;5.18;;;3.33;;
65636;SDS011;52327;42.622;23.316;2023-01-04T04:16:45;8.05;;;3.42;;
65636;SDS011;52327;42.622;23.316;2023-01-04T04:19:11;4.15;;;2.55;;
65636;SDS011;52327;42.622;23.316;2023-01-04T04:21:36;8.98;;;3.20;;
65636;SDS011;52327;42.622;23.316;2023-01-04T04:24:02;6.80;;;3.70;;
65636;SDS011;52327;42.622;23.316;2023-01-04T04:26:28;7.63;;;4.13;;
65636;SDS011;52327;42.622;23.316;2023-01-04T04:28:53;3.90;;;3.05;;
65636;SDS011;52327;42.622;23.316;2023-01-04T04:31:18;4.82;;;2.40;;
65636;SDS011;52327;42.622;23.316;2023-01-04T04:33:44;4.13;;;2.65;;
65636;SDS011;52327;42.622;23.316;2023-01-04T04:36:09;4.65;;;3.95;;
65636;SDS011;52327;42.622;23.316;2023-01-04T04:38:35;4.18;;;2.65;;
65636;SDS011;52327;42.622;23.316;2023-01-04T04:41:11;5.60;;;3.42;;
65636;SDS011;52327;42.622;23.316;2023-01-04T04:43:56;5.00;;;3.08;;
65636;SDS011;52327;42.622;23.316;2023-01-04T04:46:22;5.95;;;4.63;;
65636;SDS011;52327;42.622;23.316;2023-01-04T04:48:48;6.75;;;3.63;;
65636;SDS011;52327;42.622;23.316;2023-01-04T04:51:14;5.35;;;3.78;;
65636;SDS011;52327;42.622;23.316;2023-01-04T04:53:39;5.32;;;3.03;;
65636;SDS011;52327;42.622;23.316;2023-01-04T04:56:05;5.75;;;3.50;;
65636;SDS011;52327;42.622;23.316;2023-01-04T04:58:31;5.70;;;3.67;;
65636;SDS011;52327;42.622;23.316;2023-01-04T05:00:57;4.68;;;3.28;;
65636;SDS011;52327;42.622;23.316;2023-01-04T05:03:22;6.72;;;3.38;;
65636;SDS011;52327;42.622;23.316;2023-01-04T05:05:48;6.50;;;4.03;;
65636;SDS011;52327;42.622;23.316;2023-01-04T05:08:13;8.32;;;5.28;;
65636;SDS011;52327;42.622;23.316;2023-01-04T05:10:38;7.28;;;4.25;;
65636;SDS011;52327;42.622;23.316;2023-01-04T05:13:04;5.03;;;3.17;;
65636;SDS011;52327;42.622;23.316;2023-01-04T05:15:37;6.18;;;3.88;;
65636;SDS011;52327;42.622;23.316;2023-01-04T05:18:07;6.55;;;3.78;;
65636;SDS011;52327;42.622;23.316;2023-01-04T05:20:33;7.80;;;5.07;;
65636;SDS011;52327;42.622;23.316;2023-01-04T05:22:59;6.50;;;3.50;;
65636;SDS011;52327;42.622;23.316;2023-01-04T05:25:25;8.27;;;4.85;;
65636;SDS011;52327;42.622;23.316;2023-01-04T05:27:51;7.05;;;4.32;;
65636;SDS011;52327;42.622;23.316;2023-01-04T05:30:18;9.48;;;4.70;;
65636;SDS011;52327;42.622;23.316;2023-01-04T05:33:03;5.65;;;4.55;;
65636;SDS011;52327;42.622;23.316;2023-01-04T05:35:30;7.03;;;3.83;;
65636;SDS011;52327;42.622;23.316;2023-01-04T05:37:56;5.55;;;3.80;;
65636;SDS011;52327;42.622;23.316;2023-01-04T05:40:22;5.35;;;3.85;;
65636;SDS011;52327;42.622;23.316;2023-01-04T05:42:48;5.18;;;4.10;;
65636;SDS011;52327;42.622;23.316;2023-01-04T05:45:14;5.43;;;4.10;;
65636;SDS011;52327;42.622;23.316;2023-01-04T05:47:40;3.97;;;2.22;;
65636;SDS011;52327;42.622;23.316;2023-01-04T05:50:06;6.65;;;3.95;;
65636;SDS011;52327;42.622;23.316;2023-01-04T05:52:32;8.68;;;5.35;;
65636;SDS011;52327;42.622;23.316;2023-01-04T05:54:57;7.53;;;5.20;;
65636;SDS011;52327;42.622;23.316;2023-01-04T05:57:23;3.55;;;2.85;;
65636;SDS011;52327;42.622;23.316;2023-01-04T05:59:48;4.85;;;2.78;;
65636;SDS011;52327;42.622;23.316;2023-01-04T06:02:15;2.88;;;2.00;;
65636;SDS011;52327;42.622;23.316;2023-01-04T06:04:42;4.00;;;2.47;;
65636;SDS011;52327;42.622;23.316;2023-01-04T06:07:08;3.08;;;2.25;;
65636;SDS011;52327;42.622;23.316;2023-01-04T06:09:33;6.05;;;3.00;;
65636;SDS011;52327;42.622;23.316;2023-01-04T06:11:59;3.20;;;2.33;;
65636;SDS011;52327;42.622;23.316;2023-01-04T06:14:24;4.55;;;2.63;;
65636;SDS011;52327;42.622;23.316;2023-01-04T06:16:49;3.78;;;2.38;;
65636;SDS011;52327;42.622;23.316;2023-01-04T06:19:15;6.78;;;3.20;;
65636;SDS011;52327;42.622;23.316;2023-01-04T06:21:40;3.47;;;2.35;;
65636;SDS011;52327;42.622;23.316;2023-01-04T06:24:06;4.30;;;2.80;;
65636;SDS011;52327;42.622;23.316;2023-01-04T06:26:31;2.35;;;1.55;;
65636;SDS011;52327;42.622;23.316;2023-01-04T06:28:57;3.00;;;2.03;;
65636;SDS011;52327;42.622;23.316;2023-01-04T06:31:22;2.28;;;1.88;;
65636;SDS011;52327;42.622;23.316;2023-01-04T06:33:47;2.42;;;1.65;;
65636;SDS011;52327;42.622;23.316;2023-01-04T06:36:13;3.83;;;2.15;;
65636;SDS011;52327;42.622;23.316;2023-01-04T06:38:38;3.58;;;1.50;;
65636;SDS011;52327;42.622;23.316;2023-01-04T06:41:04;1.95;;;1.15;;
65636;SDS011;52327;42.622;23.316;2023-01-04T06:43:29;3.35;;;1.80;;
65636;SDS011;52327;42.622;23.316;2023-01-04T06:45:55;1.60;;;1.17;;
65636;SDS011;52327;42.622;23.316;2023-01-04T06:48:20;3.72;;;2.45;;
65636;SDS011;52327;42.622;23.316;2023-01-04T06:50:46;1.98;;;1.55;;
65636;SDS011;52327;42.622;23.316;2023-01-04T06:53:11;1.60;;;1.25;;
65636;SDS011;52327;42.622;23.316;2023-01-04T06:55:36;2.70;;;1.55;;
65636;SDS011;52327;42.622;23.316;2023-01-04T06:58:02;3.83;;;2.50;;
65636;SDS011;52327;42.622;23.316;2023-01-04T07:00:27;6.13;;;2.17;;
65636;SDS011;52327;42.622;23.316;2023-01-04T07:02:53;3.90;;;1.85;;
65636;SDS011;52327;42.622;23.316;2023-01-04T07:05:18;5.07;;;2.70;;
65636;SDS011;52327;42.622;23.316;2023-01-04T07:07:44;2.83;;;1.52;;
65636;SDS011;52327;42.622;23.316;2023-01-04T07:10:09;2.15;;;1.52;;
65636;SDS011;52327;42.622;23.316;2023-01-04T07:12:35;6.05;;;2.55;;
65636;SDS011;52327;42.622;23.316;2023-01-04T07:15:00;2.20;;;2.00;;
65636;SDS011;52327;42.622;23.316;2023-01-04T07:17:26;3.03;;;1.67;;
65636;SDS011;52327;42.622;23.316;2023-01-04T07:19:51;4.50;;;2.05;;
65636;SDS011;52327;42.622;23.316;2023-01-04T07:22:17;3.40;;;1.52;;
65636;SDS011;52327;42.622;23.316;2023-01-04T07:24:42;7.32;;;2.15;;
65636;SDS011;52327;42.622;23.316;2023-01-04T07:27:11;4.10;;;2.92;;
65636;SDS011;52327;42.622;23.316;2023-01-04T07:29:37;6.07;;;2.65;;
65636;SDS011;52327;42.622;23.316;2023-01-04T07:32:07;1.67;;;1.48;;
65636;SDS011;52327;42.622;23.316;2023-01-04T07:34:34;2.15;;;1.50;;
65636;SDS011;52327;42.622;23.316;2023-01-04T07:37:02;3.75;;;2.10;;
65636;SDS011;52327;42.622;23.316;2023-01-04T07:39:28;2.85;;;1.73;;
65636;SDS011;52327;42.622;23.316;2023-01-04T07:41:53;3.88;;;2.85;;
65636;SDS011;52327;42.622;23.316;2023-01-04T07:44:18;3.65;;;2.90;;
65636;SDS011;52327;42.622;23.316;2023-01-04T07:46:45;3.33;;;2.55;;
65636;SDS011;52327;42.622;23.316;2023-01-04T07:49:12;4.13;;;2.30;;
65636;SDS011;52327;42.622;23.316;2023-01-04T07:51:39;1.90;;;1.60;;
65636;SDS011;52327;42.622;23.316;2023-01-04T07:54:05;4.75;;;2.90;;
65636;SDS011;52327;42.622;23.316;2023-01-04T07:56:30;5.45;;;3.13;;
65636;SDS011;52327;42.622;23.316;2023-01-04T07:58:56;4.60;;;2.78;;
65636;SDS011;52327;42.622;23.316;2023-01-04T08:01:23;4.63;;;2.35;;
65636;SDS011;52327;42.622;23.316;2023-01-04T08:03:50;5.43;;;2.97;;
65636;SDS011;52327;42.622;23.316;2023-01-04T08:06:16;3.35;;;2.20;;
65636;SDS011;52327;42.622;23.316;2023-01-04T08:08:43;9.68;;;3.13;;
65636;SDS011;52327;42.622;23.316;2023-01-04T08:11:10;4.05;;;2.45;;
65636;SDS011;52327;42.622;23.316;2023-01-04T08:13:37;4.88;;;3.40;;
65636;SDS011;52327;42.622;23.316;2023-01-04T08:16:03;3.47;;;2.65;;
65636;SDS011;52327;42.622;23.316;2023-01-04T08:18:29;3.80;;;2.55;;
65636;SDS011;52327;42.622;23.316;2023-01-04T08:21:03;3.85;;;2.25;;
65636;SDS011;52327;42.622;23.316;2023-01-04T08:23:30;5.60;;;3.10;;
65636;SDS011;52327;42.622;23.316;2023-01-04T08:26:07;4.38;;;3.15;;
65636;SDS011;52327;42.622;23.316;2023-01-04T08:28:35;4.80;;;2.53;;
65636;SDS011;52327;42.622;23.316;2023-01-04T08:31:11;4.63;;;3.17;;
65636;SDS011;52327;42.622;23.316;2023-01-04T08:33:42;2.33;;;1.85;;
65636;SDS011;52327;42.622;23.316;2023-01-04T08:36:09;4.10;;;2.95;;
65636;SDS011;52327;42.622;23.316;2023-01-04T08:38:36;4.43;;;2.67;;
65636;SDS011;52327;42.622;23.316;2023-01-04T08:41:02;7.45;;;3.05;;
65636;SDS011;52327;42.622;23.316;2023-01-04T08:43:28;4.22;;;2.92;;
65636;SDS011;52327;42.622;23.316;2023-01-04T08:45:53;3.78;;;2.30;;
65636;SDS011;52327;42.622;23.316;2023-01-04T08:48:21;4.38;;;2.72;;
65636;SDS011;52327;42.622;23.316;2023-01-04T08:50:47;4.07;;;3.17;;
65636;SDS011;52327;42.622;23.316;2023-01-04T08:53:12;2.90;;;2.08;;
65636;SDS011;52327;42.622;23.316;2023-01-04T08:55:38;2.30;;;1.88;;
65636;SDS011;52327;42.622;23.316;2023-01-04T08:58:03;5.15;;;2.83;;
65636;SDS011;52327;42.622;23.316;2023-01-04T09:00:31;4.28;;;2.90;;
65636;SDS011;52327;42.622;23.316;2023-01-04T09:02:57;5.35;;;2.80;;
65636;SDS011;52327;42.622;23.316;2023-01-04T09:05:22;8.55;;;3.13;;
65636;SDS011;52327;42.622;23.316;2023-01-04T09:07:49;6.00;;;2.75;;
65636;SDS011;52327;42.622;23.316;2023-01-04T09:10:15;4.68;;;2.72;;
65636;SDS011;52327;42.622;23.316;2023-01-04T09:12:41;6.55;;;3.20;;
65636;SDS011;52327;42.622;23.316;2023-01-04T09:15:07;9.18;;;3.58;;
65636;SDS011;52327;42.622;23.316;2023-01-04T09:17:33;4.38;;;2.80;;
65636;SDS011;52327;42.622;23.316;2023-01-04T09:19:58;5.22;;;2.88;;
65636;SDS011;52327;42.622;23.316;2023-01-04T09:22:24;6.13;;;3.45;;
65636;SDS011;52327;42.622;23.316;2023-01-04T09:24:49;2.33;;;2.13;;
65636;SDS011;52327;42.622;23.316;2023-01-04T09:27:15;4.20;;;2.92;;
65636;SDS011;52327;42.622;23.316;2023-01-04T09:29:40;6.25;;;3.03;;
65636;SDS011;52327;42.622;23.316;2023-01-04T09:32:05;2.92;;;2.17;;
65636;SDS011;52327;42.622;23.316;2023-01-04T09:34:31;5.28;;;3.42;;
65636;SDS011;52327;42.622;23.316;2023-01-04T09:36:56;5.18;;;3.95;;
65636;SDS011;52327;42.622;23.316;2023-01-04T09:39:22;5.50;;;3.40;;
65636;SDS011;52327;42.622;23.316;2023-01-04T09:41:54;4.35;;;2.78;;
65636;SDS011;52327;42.622;23.316;2023-01-04T09:47:06;4.38;;;2.72;;
65636;SDS011;52327;42.622;23.316;2023-01-04T09:52:19;4.28;;;2.83;;
65636;SDS011;52327;42.622;23.316;2023-01-04T09:54:57;4.65;;;2.60;;
65636;SDS011;52327;42.622;23.316;2023-01-04T09:57:26;7.05;;;2.95;;
65636;SDS011;52327;42.622;23.316;2023-01-04T09:59:56;4.35;;;2.97;;
65636;SDS011;52327;42.622;23.316;2023-01-04T10:02:32;4.57;;;3.15;;
65636;SDS011;52327;42.622;23.316;2023-01-04T10:05:06;4.90;;;3.37;;
65636;SDS011;52327;42.622;23.316;2023-01-04T10:07:35;4.78;;;2.35;;
65636;SDS011;52327;42.622;23.316;2023-01-04T10:10:05;4.32;;;2.95;;
65636;SDS011;52327;42.622;23.316;2023-01-04T10:27:04;4.85;;;2.78;;
65636;SDS011;52327;42.622;23.316;2023-01-04T10:31:50;1.83;;;1.40;;
65636;SDS011;52327;42.622;23.316;2023-01-04T10:34:27;5.88;;;2.85;;
65636;SDS011;52327;42.622;23.316;2023-01-04T10:36:58;4.32;;;2.72;;
65636;SDS011;52327;42.622;23.316;2023-01-04T10:39:28;3.33;;;2.20;;
65636;SDS011;52327;42.622;23.316;2023-01-04T10:41:58;3.20;;;2.60;;
65636;SDS011;52327;42.622;23.316;2023-01-04T10:47:04;6.43;;;4.55;;
65636;SDS011;52327;42.622;23.316;2023-01-04T10:49:47;5.53;;;2.88;;
65636;SDS011;52327;42.622;23.316;2023-01-04T10:52:24;3.08;;;2.17;;
65636;SDS011;52327;42.622;23.316;2023-01-04T10:58:36;2.33;;;1.92;;
65636;SDS011;52327;42.622;23.316;2023-01-04T11:01:05;3.40;;;2.42;;
65636;SDS011;52327;42.622;23.316;2023-01-04T11:03:37;4.03;;;2.38;;
65636;SDS011;52327;42.622;23.316;2023-01-04T11:06:12;3.65;;;2.85;;
65636;SDS011;52327;42.622;23.316;2023-01-04T11:08:46;3.67;;;2.05;;
65636;SDS011;52327;42.622;23.316;2023-01-04T11:11:21;3.63;;;2.60;;
65636;SDS011;52327;42.622;23.316;2023-01-04T11:13:50;5.00;;;2.45;;
65636;SDS011;52327;42.622;23.316;2023-01-04T11:16:16;3.53;;;2.90;;
65636;SDS011;52327;42.622;23.316;2023-01-04T11:18:42;5.78;;;3.35;;
65636;SDS011;52327;42.622;23.316;2023-01-04T11:21:11;4.88;;;2.90;;
65636;SDS011;52327;42.622;23.316;2023-01-04T11:23:38;4.70;;;2.90;;
65636;SDS011;52327;42.622;23.316;2023-01-04T11:26:08;7.60;;;3.83;;
65636;SDS011;52327;42.622;23.316;2023-01-04T11:28:42;5.30;;;3.03;;
65636;SDS011;52327;42.622;23.316;2023-01-04T11:31:47;5.35;;;2.95;;
65636;SDS011;52327;42.622;23.316;2023-01-04T11:34:17;4.95;;;3.30;;
65636;SDS011;52327;42.622;23.316;2023-01-04T11:36:43;3.53;;;2.65;;
65636;SDS011;52327;42.622;23.316;2023-01-04T11:39:18;5.95;;;3.33;;
65636;SDS011;52327;42.622;23.316;2023-01-04T11:44:23;7.70;;;4.85;;
65636;SDS011;52327;42.622;23.316;2023-01-04T11:49:45;4.03;;;2.33;;
65636;SDS011;52327;42.622;23.316;2023-01-04T11:52:31;5.07;;;2.55;;
65636;SDS011;52327;42.622;23.316;2023-01-04T11:58:06;4.57;;;2.42;;
65636;SDS011;52327;42.622;23.316;2023-01-04T12:00:36;2.70;;;2.05;;
65636;SDS011;52327;42.622;23.316;2023-01-04T12:05:37;3.47;;;2.67;;
65636;SDS011;52327;42.622;23.316;2023-01-04T12:08:03;13.10;;;3.00;;
65636;SDS011;52327;42.622;23.316;2023-01-04T12:10:28;4.50;;;2.20;;
65636;SDS011;52327;42.622;23.316;2023-01-04T12:12:54;2.92;;;2.47;;
65636;SDS011;52327;42.622;23.316;2023-01-04T12:15:28;6.57;;;3.72;;
65636;SDS011;52327;42.622;23.316;2023-01-04T12:18:00;3.83;;;2.63;;
65636;SDS011;52327;42.622;23.316;2023-01-04T12:20:31;3.45;;;2.45;;
65636;SDS011;52327;42.622;23.316;2023-01-04T12:22:57;5.90;;;3.53;;
65636;SDS011;52327;42.622;23.316;2023-01-04T12:27:48;4.95;;;2.58;;
65636;SDS011;52327;42.622;23.316;2023-01-04T12:30:32;4.18;;;2.80;;
65636;SDS011;52327;42.622;23.316;2023-01-04T12:32:59;3.47;;;2.42;;
65636;SDS011;52327;42.622;23.316;2023-01-04T12:36:00;2.95;;;1.90;;
65636;SDS011;52327;42.622;23.316;2023-01-04T12:41:22;5.65;;;3.13;;
65636;SDS011;52327;42.622;23.316;2023-01-04T12:44:06;3.28;;;2.67;;
65636;SDS011;52327;42.622;23.316;2023-01-04T12:47:00;4.60;;;2.05;;
65636;SDS011;52327;42.622;23.316;2023-01-04T12:49:48;5.43;;;3.20;;
65636;SDS011;52327;42.622;23.316;2023-01-04T12:54:52;7.95;;;4.65;;
65636;SDS011;52327;42.622;23.316;2023-01-04T12:57:24;4.95;;;3.60;;
65636;SDS011;52327;42.622;23.316;2023-01-04T13:00:03;4.05;;;2.70;;
65636;SDS011;52327;42.622;23.316;2023-01-04T13:07:55;6.22;;;3.00;;
65636;SDS011;52327;42.622;23.316;2023-01-04T13:13:44;6.05;;;4.28;;
65636;SDS011;52327;42.622;23.316;2023-01-04T13:18:52;5.45;;;3.67;;
65636;SDS011;52327;42.622;23.316;2023-01-04T13:21:25;5.10;;;3.63;;
65636;SDS011;52327;42.622;23.316;2023-01-04T13:23:54;4.43;;;3.25;;
65636;SDS011;52327;42.622;23.316;2023-01-04T13:31:29;6.10;;;2.75;;
65636;SDS011;52327;42.622;23.316;2023-01-04T13:36:31;4.88;;;3.42;;
65636;SDS011;52327;42.622;23.316;2023-01-04T13:38:56;5.35;;;3.60;;
65636;SDS011;52327;42.622;23.316;2023-01-04T13:41:23;4.32;;;3.45;;
65636;SDS011;52327;42.622;23.316;2023-01-04T13:43:56;7.85;;;3.90;;
65636;SDS011;52327;42.622;23.316;2023-01-04T13:46:26;3.88;;;2.95;;
65636;SDS011;52327;42.622;23.316;2023-01-04T13:48:52;9.35;;;4.28;;
65636;SDS011;52327;42.622;23.316;2023-01-04T13:51:30;4.78;;;3.22;;
65636;SDS011;52327;42.622;23.316;2023-01-04T13:54:03;3.50;;;2.50;;
65636;SDS011;52327;42.622;23.316;2023-01-04T13:57:06;4.72;;;2.72;;
65636;SDS011;52327;42.622;23.316;2023-01-04T13:59:39;6.68;;;3.28;;
65636;SDS011;52327;42.622;23.316;2023-01-04T14:02:12;3.90;;;2.22;;
65636;SDS011;52327;42.622;23.316;2023-01-04T14:04:44;9.83;;;3.43;;
65636;SDS011;52327;42.622;23.316;2023-01-04T14:07:11;5.70;;;3.35;;
65636;SDS011;52327;42.622;23.316;2023-01-04T14:09:45;6.30;;;3.63;;
65636;SDS011;52327;42.622;23.316;2023-01-04T14:12:23;7.10;;;3.80;;
65636;SDS011;52327;42.622;23.316;2023-01-04T14:15:38;3.95;;;2.50;;
65636;SDS011;52327;42.622;23.316;2023-01-04T14:18:29;5.90;;;3.33;;
65636;SDS011;52327;42.622;23.316;2023-01-04T14:20:55;5.20;;;2.88;;
65636;SDS011;52327;42.622;23.316;2023-01-04T14:23:25;9.30;;;4.22;;
65636;SDS011;52327;42.622;23.316;2023-01-04T14:26:02;7.80;;;3.58;;
65636;SDS011;52327;42.622;23.316;2023-01-04T14:28:32;5.38;;;3.30;;
65636;SDS011;52327;42.622;23.316;2023-01-04T14:38:33;8.00;;;4.03;;
65636;SDS011;52327;42.622;23.316;2023-01-04T14:43:44;6.10;;;3.42;;
65636;SDS011;52327;42.622;23.316;2023-01-04T14:46:11;6.38;;;3.78;;
65636;SDS011;52327;42.622;23.316;2023-01-04T14:48:37;6.78;;;3.90;;
65636;SDS011;52327;42.622;23.316;2023-01-04T14:51:02;6.43;;;3.97;;
65636;SDS011;52327;42.622;23.316;2023-01-04T14:53:29;7.72;;;4.55;;
65636;SDS011;52327;42.622;23.316;2023-01-04T14:55:54;7.50;;;3.58;;
65636;SDS011;52327;42.622;23.316;2023-01-04T14:58:20;6.53;;;4.80;;
65636;SDS011;52327;42.622;23.316;2023-01-04T15:00:46;7.03;;;4.78;;
65636;SDS011;52327;42.622;23.316;2023-01-04T15:03:12;9.07;;;4.53;;
65636;SDS011;52327;42.622;23.316;2023-01-04T15:05:37;8.60;;;4.93;;
65636;SDS011;52327;42.622;23.316;2023-01-04T15:08:04;8.60;;;3.92;;
65636;SDS011;52327;42.622;23.316;2023-01-04T15:10:29;6.80;;;4.85;;
65636;SDS011;52327;42.622;23.316;2023-01-04T15:12:55;8.18;;;4.05;;
65636;SDS011;52327;42.622;23.316;2023-01-04T15:15:28;6.85;;;4.10;;
65636;SDS011;52327;42.622;23.316;2023-01-04T15:17:54;6.28;;;4.30;;
65636;SDS011;52327;42.622;23.316;2023-01-04T15:20:19;4.35;;;2.97;;
65636;SDS011;52327;42.622;23.316;2023-01-04T15:22:45;6.70;;;4.05;;
65636;SDS011;52327;42.622;23.316;2023-01-04T15:25:10;7.22;;;3.80;;
65636;SDS011;52327;42.622;23.316;2023-01-04T15:27:36;18.08;;;7.57;;
65636;SDS011;52327;42.622;23.316;2023-01-04T15:30:02;12.10;;;6.53;;
65636;SDS011;52327;42.622;23.316;2023-01-04T15:32:28;13.98;;;5.60;;
65636;SDS011;52327;42.622;23.316;2023-01-04T15:34:55;5.32;;;4.03;;
65636;SDS011;52327;42.622;23.316;2023-01-04T15:37:21;6.88;;;4.78;;
65636;SDS011;52327;42.622;23.316;2023-01-04T15:39:47;10.02;;;4.28;;
65636;SDS011;52327;42.622;23.316;2023-01-04T15:42:12;6.00;;;3.35;;
65636;SDS011;52327;42.622;23.316;2023-01-04T15:44:56;4.47;;;3.22;;
65636;SDS011;52327;42.622;23.316;2023-01-04T15:47:22;4.07;;;3.22;;
65636;SDS011;52327;42.622;23.316;2023-01-04T15:49:47;9.43;;;5.88;;
65636;SDS011;52327;42.622;23.316;2023-01-04T15:52:12;7.43;;;4.75;;
65636;SDS011;52327;42.622;23.316;2023-01-04T15:54:39;9.38;;;4.93;;
65636;SDS011;52327;42.622;23.316;2023-01-04T15:57:05;12.23;;;6.55;;
65636;SDS011;52327;42.622;23.316;2023-01-04T15:59:30;3.88;;;3.25;;
65636;SDS011;52327;42.622;23.316;2023-01-04T16:01:55;11.68;;;7.03;;
65636;SDS011;52327;42.622;23.316;2023-01-04T16:04:21;10.93;;;6.18;;
65636;SDS011;52327;42.622;23.316;2023-01-04T16:06:46;7.65;;;4.68;;
65636;SDS011;52327;42.622;23.316;2023-01-04T16:09:12;7.05;;;4.97;;
65636;SDS011;52327;42.622;23.316;2023-01-04T16:11:37;6.07;;;3.95;;
65636;SDS011;52327;42.622;23.316;2023-01-04T16:14:23;8.50;;;4.78;;
65636;SDS011;52327;42.622;23.316;2023-01-04T16:16:48;11.05;;;6.47;;
65636;SDS011;52327;42.622;23.316;2023-01-04T16:19:13;8.35;;;5.60;;
65636;SDS011;52327;42.622;23.316;2023-01-04T16:21:39;7.75;;;4.15;;
65636;SDS011;52327;42.622;23.316;2023-01-04T16:24:04;5.10;;;3.30;;
65636;SDS011;52327;42.622;23.316;2023-01-04T16:26:31;6.30;;;4.65;;
65636;SDS011;52327;42.622;23.316;2023-01-04T16:29:10;9.98;;;5.45;;
65636;SDS011;52327;42.622;23.316;2023-01-04T16:31:36;10.88;;;5.82;;
65636;SDS011;52327;42.622;23.316;2023-01-04T16:34:03;6.97;;;4.78;;
65636;SDS011;52327;42.622;23.316;2023-01-04T16:36:29;9.02;;;4.93;;